Vergas, MN

2:58 PM CST on December 10, 2016 (GMT -0600)
Flatau Long Lake | | Change Station

Elev 1365 ft 46.66 °N, 95.73 °W | Updated 22 seconds ago

Mostly Cloudy
Mostly Cloudy
1.2 °F
Feels Like 1 °F
N
1.1
Wind Variable Wind from SE
Gusts 2.5 mph

Today
High -- | Low -- °F
--% Chance of Precip.
Yesterday
High -- | Low -- °F
Precip. -- in
Pressure 30.29 in
Visibility 10.0 miles
Clouds Scattered Clouds 1500 ft
Scattered Clouds 7500 ft
Windchill 1 °F
Dew Point -10 °F
Humidity 57%
Rainfall 0.00 in
Snow Depth Not available.
7:57 AM 4:35 PM
Waxing Gibbous, 86% visible
METAR KDTL 102034Z AUTO 13004KT 10SM SCT015 SCT075 M17/M20 A3029 RMK AO2
Pressure 30.29 in
Visibility 10.0 miles
Clouds Scattered Clouds 1500 ft
Scattered Clouds 7500 ft
Windchill 1 °F
Dew Point -10 °F
Humidity 57%
Rainfall 0.00 in
Snow Depth Not available.
7:57 AM 4:35 PM
Waxing Gibbous, 86% visible
METAR KDTL 102034Z AUTO 13004KT 10SM SCT015 SCT075 M17/M20 A3029 RMK AO2

10-Day Weather Forecast

Almanac

Astronomy

Dec. 10, 2016 Rise Set
Actual Time
Civil Twilight
Nautical Twilight
Astronomical Twilight
Moon
Length of Visible Light
Length of Day
Tomorrow will be .
, % of the Moon is Illuminated

Today's Extremes

State Highs State Lows

Community

WunderPhotos

Upload Photos

1,956,659 photos uploaded!

WunderBlog® & News

Nearby

Air Quality

  Air Quality AQ Index Pollutant
Not available.

Snow Depth

Station Depth Elevation

Earthquake Activity

City Distance Mag. Time & Date
Minimum magnitude displayed is 2.5.

Coastal Water Temperatures

Place Temperature

Stations

Nearby Weather Stations

Station Location Temp. Windchill Dew Point Humidity Wind Precip. Elev Updated Type
                   

Watches & Warnings

There are currently no watches in effect.